createdAt,value
2023-04-21T00:00:45.302Z,100.00
2023-04-21T00:03:13.201Z,100.00
2023-04-21T00:05:43.541Z,100.00
2023-04-21T00:08:11.308Z,100.00
2023-04-21T00:10:39.052Z,100.00
2023-04-21T00:13:06.833Z,100.00
2023-04-21T00:15:34.701Z,100.00
2023-04-21T00:18:03.767Z,100.00
2023-04-21T00:20:31.744Z,100.00
2023-04-21T00:23:01.332Z,100.00
2023-04-21T00:25:29.065Z,100.00
2023-04-21T00:27:56.775Z,100.00
2023-04-21T00:30:24.601Z,100.00
2023-04-21T00:32:52.409Z,100.00
2023-04-21T00:35:20.157Z,100.00
2023-04-21T00:37:47.883Z,100.00
2023-04-21T00:40:17.015Z,100.00
2023-04-21T00:42:44.743Z,100.00
2023-04-21T00:45:14.772Z,100.00
2023-04-21T00:47:42.526Z,100.00
2023-04-21T00:50:11.445Z,100.00
2023-04-21T00:52:40.838Z,100.00
2023-04-21T00:55:09.486Z,100.00
2023-04-21T00:57:38.886Z,100.00
2023-04-21T01:00:08.950Z,100.00
2023-04-21T01:02:37.939Z,100.00
2023-04-21T01:05:08.936Z,100.00
2023-04-21T01:07:36.875Z,100.00
2023-04-21T01:10:04.955Z,100.00
2023-04-21T01:12:32.738Z,100.00
2023-04-21T01:15:01.833Z,100.00
2023-04-21T01:17:31.311Z,100.00
2023-04-21T01:19:59.448Z,100.00
2023-04-21T01:22:29.055Z,100.00
2023-04-21T01:24:56.840Z,100.00
2023-04-21T01:27:26.860Z,100.00
2023-04-21T01:29:54.653Z,100.00
2023-04-21T01:32:25.273Z,100.00
2023-04-21T01:34:53.667Z,100.00
2023-04-21T01:37:23.366Z,100.00
2023-04-21T01:39:55.717Z,100.00
2023-04-21T01:42:25.716Z,100.00
2023-04-21T01:44:54.637Z,100.00
2023-04-21T01:47:23.109Z,100.00
2023-04-21T01:49:50.854Z,100.00
2023-04-21T01:52:18.613Z,100.00
2023-04-21T01:54:46.388Z,100.00
2023-04-21T01:57:15.607Z,100.00
2023-04-21T01:59:43.431Z,100.00
2023-04-21T02:02:11.253Z,100.00
2023-04-21T02:04:39.195Z,100.00
2023-04-21T02:07:07.142Z,100.00
2023-04-21T02:09:34.893Z,100.00
2023-04-21T02:12:03.785Z,100.00
2023-04-21T02:14:32.890Z,100.00
2023-04-21T02:17:03.052Z,100.00
2023-04-21T02:19:31.308Z,100.00
2023-04-21T02:21:59.052Z,100.00
2023-04-21T02:24:27.051Z,100.00
2023-04-21T02:26:54.820Z,100.00
2023-04-21T02:29:22.471Z,100.00
2023-04-21T02:32:03.091Z,100.00
2023-04-21T02:34:33.351Z,100.00
2023-04-21T02:37:01.051Z,100.00
2023-04-21T02:39:28.812Z,100.00
2023-04-21T02:41:56.897Z,100.00
2023-04-21T02:44:24.631Z,100.00
2023-04-21T02:46:53.880Z,100.00
2023-04-21T02:49:21.972Z,100.00
2023-04-21T02:51:49.800Z,100.00
2023-04-21T02:54:17.493Z,100.00
2023-04-21T02:56:45.229Z,100.00
2023-04-21T02:59:16.464Z,100.00
2023-04-21T03:01:44.604Z,100.00
2023-04-21T03:04:14.237Z,100.00
2023-04-21T03:06:41.995Z,100.00
2023-04-21T03:09:09.925Z,100.00
2023-04-21T03:11:37.695Z,100.00
2023-04-21T03:14:05.399Z,100.00
2023-04-21T03:16:33.286Z,100.00
2023-04-21T03:19:01.206Z,100.00
2023-04-21T03:21:31.431Z,100.00
2023-04-21T03:23:59.220Z,100.00
2023-04-21T03:26:26.983Z,100.00
2023-04-21T03:28:54.728Z,100.00
2023-04-21T03:31:22.504Z,100.00
2023-04-21T03:33:50.220Z,100.00
2023-04-21T03:36:18.004Z,100.00
2023-04-21T03:38:47.140Z,100.00
2023-04-21T03:41:14.954Z,100.00
2023-04-21T03:43:43.071Z,100.00
2023-04-21T03:46:18.751Z,100.00
2023-04-21T03:48:46.783Z,100.00
2023-04-21T03:51:14.680Z,100.00
2023-04-21T03:53:42.555Z,100.00
2023-04-21T03:56:12.010Z,100.00
2023-04-21T03:58:39.784Z,100.00
2023-04-21T04:01:08.121Z,100.00
2023-04-21T04:03:36.105Z,100.00
2023-04-21T04:06:04.237Z,100.00
2023-04-21T04:08:32.073Z,100.00
2023-04-21T04:10:59.823Z,100.00
2023-04-21T04:13:29.399Z,100.00
2023-04-21T04:15:57.905Z,100.00
2023-04-21T04:18:25.909Z,100.00
2023-04-21T04:20:53.595Z,100.00
2023-04-21T04:23:21.944Z,100.00
2023-04-21T04:25:49.715Z,100.00
2023-04-21T04:28:17.377Z,100.00
2023-04-21T04:30:46.484Z,100.00
2023-04-21T04:33:14.242Z,100.00
2023-04-21T04:35:41.919Z,100.00
2023-04-21T04:38:09.570Z,100.00
2023-04-21T04:40:37.290Z,100.00
2023-04-21T04:43:05.030Z,100.00
2023-04-21T04:45:33.170Z,100.00
2023-04-21T04:48:02.242Z,100.00
2023-04-21T04:50:30.044Z,100.00
2023-04-21T04:52:57.843Z,100.00
2023-04-21T04:55:25.648Z,100.00
2023-04-21T04:57:53.450Z,100.00
2023-04-21T05:00:21.571Z,100.00
2023-04-21T05:02:49.406Z,100.00
2023-04-21T05:05:18.619Z,100.00
2023-04-21T05:07:46.373Z,100.00
2023-04-21T05:10:14.168Z,100.00
2023-04-21T05:12:41.865Z,100.00
2023-04-21T05:15:10.964Z,100.00
2023-04-21T05:17:38.754Z,100.00
2023-04-21T05:20:07.285Z,100.00
2023-04-21T05:22:39.376Z,100.00
2023-04-21T05:25:08.098Z,100.00
2023-04-21T05:27:35.922Z,100.00
2023-04-21T05:30:03.716Z,100.00
2023-04-21T05:32:31.525Z,100.00
2023-04-21T05:34:59.691Z,100.00
2023-04-21T05:37:27.471Z,100.00
2023-04-21T05:39:56.649Z,100.00
2023-04-21T05:42:24.405Z,100.00
2023-04-21T05:44:52.158Z,100.00
2023-04-21T05:47:19.893Z,100.00
2023-04-21T05:49:50.395Z,100.00
2023-04-21T05:52:18.599Z,100.00
2023-04-21T05:54:46.302Z,100.00
2023-04-21T05:57:16.243Z,99.52
2023-04-21T05:59:43.958Z,94.12
2023-04-21T06:02:11.772Z,94.95
2023-04-21T06:04:39.834Z,89.16
2023-04-21T06:07:08.211Z,92.57
2023-04-21T06:09:36.274Z,93.42
2023-04-21T06:12:04.105Z,94.80
2023-04-21T06:14:33.249Z,98.96
2023-04-21T06:17:01.074Z,95.50
2023-04-21T06:19:28.876Z,100.00
2023-04-21T06:21:57.732Z,95.50
2023-04-21T06:24:26.161Z,95.19
2023-04-21T06:26:54.007Z,100.00
2023-04-21T06:29:21.823Z,99.62
2023-04-21T06:31:50.965Z,100.00
2023-04-21T06:34:20.248Z,100.00
2023-04-21T06:36:48.226Z,92.96
2023-04-21T06:39:15.962Z,97.56
2023-04-21T06:41:43.885Z,99.65
2023-04-21T06:44:13.959Z,96.58
2023-04-21T06:46:41.888Z,94.51
2023-04-21T06:49:11.114Z,90.04
2023-04-21T06:51:38.917Z,86.99
2023-04-21T06:54:06.998Z,86.70
2023-04-21T06:56:34.698Z,87.39
2023-04-21T06:59:02.430Z,84.58
2023-04-21T07:01:30.341Z,82.34
2023-04-21T07:03:58.109Z,84.29
2023-04-21T07:06:27.952Z,84.73
2023-04-21T07:08:55.639Z,83.96
2023-04-21T07:11:23.378Z,85.32
2023-04-21T07:13:51.100Z,82.85
2023-04-21T07:16:18.809Z,79.33
2023-04-21T07:18:46.656Z,79.96
2023-04-21T07:21:14.392Z,76.19
2023-04-21T07:23:43.582Z,74.08
2023-04-21T07:26:11.464Z,77.86
2023-04-21T07:28:40.699Z,72.50
2023-04-21T07:31:08.479Z,72.62
2023-04-21T07:33:36.635Z,72.20
2023-04-21T07:36:04.649Z,70.88
2023-04-21T07:38:32.406Z,68.40
2023-04-21T07:41:01.523Z,71.91
2023-04-21T07:43:31.023Z,73.25
2023-04-21T07:45:58.868Z,71.20
2023-04-21T07:48:26.704Z,72.31
2023-04-21T07:50:54.505Z,75.45
2023-04-21T07:53:22.487Z,76.71
2023-04-21T07:55:50.257Z,77.62
2023-04-21T07:58:19.307Z,75.12
2023-04-21T08:00:47.010Z,75.93
2023-04-21T08:03:15.021Z,77.82
2023-04-21T08:05:43.092Z,73.03
2023-04-21T08:08:11.332Z,69.96
2023-04-21T08:10:39.063Z,67.93
2023-04-21T08:13:06.844Z,67.54
2023-04-21T08:15:36.156Z,67.79
2023-04-21T08:18:04.018Z,70.75
2023-04-21T08:20:31.980Z,73.29
2023-04-21T08:22:59.710Z,73.86
2023-04-21T08:25:27.463Z,69.18
2023-04-21T08:27:55.246Z,68.96
2023-04-21T08:30:23.092Z,68.44
2023-04-21T08:32:52.247Z,69.35
2023-04-21T08:35:20.083Z,70.22
2023-04-21T08:37:48.576Z,69.20
2023-04-21T08:40:16.812Z,69.65
2023-04-21T08:42:44.549Z,65.96
2023-04-21T08:45:12.734Z,65.96
2023-04-21T08:47:42.082Z,64.34
2023-04-21T08:50:14.315Z,65.11
2023-04-21T08:52:42.050Z,67.87
2023-04-21T08:55:11.069Z,66.37
2023-04-21T08:57:38.743Z,65.86
2023-04-21T09:00:08.477Z,65.42
2023-04-21T09:03:00.253Z,64.20
2023-04-21T09:05:31.264Z,64.43
2023-04-21T09:08:09.263Z,59.88
2023-04-21T09:10:44.378Z,58.53
2023-04-21T09:13:12.083Z,60.31
2023-04-21T09:15:41.703Z,59.14
2023-04-21T09:18:14.426Z,56.01
2023-04-21T09:20:44.354Z,59.38
2023-04-21T09:23:12.530Z,57.77
2023-04-21T09:25:41.173Z,61.84
2023-04-21T09:28:09.288Z,60.59
2023-04-21T09:30:37.485Z,59.88
2023-04-21T09:33:13.348Z,59.84
2023-04-21T09:35:49.479Z,60.68
2023-04-21T09:38:17.565Z,60.67
2023-04-21T09:40:45.461Z,61.50
2023-04-21T09:43:13.149Z,60.01
2023-04-21T09:45:41.217Z,57.10
2023-04-21T09:48:10.648Z,56.69
2023-04-21T09:51:21.960Z,54.60
2023-04-21T09:53:27.930Z,56.02
2023-04-21T09:55:57.257Z,55.70
2023-04-21T09:58:29.118Z,53.04
2023-04-21T10:00:58.461Z,52.52
2023-04-21T10:03:29.239Z,52.28
2023-04-21T10:05:57.470Z,50.46
2023-04-21T10:08:25.199Z,50.05
2023-04-21T10:10:54.544Z,49.19
2023-04-21T10:13:22.585Z,51.00
2023-04-21T10:15:50.281Z,53.97
2023-04-21T10:18:19.272Z,52.77
2023-04-21T10:20:54.207Z,51.88
2023-04-21T10:23:32.983Z,51.66
2023-04-21T10:26:06.805Z,51.60
2023-04-21T10:28:45.581Z,51.45
2023-04-21T10:31:32.111Z,50.33
2023-04-21T10:34:16.417Z,51.94
2023-04-21T10:36:50.069Z,50.00
2023-04-21T10:39:27.789Z,48.84
2023-04-21T10:41:59.248Z,47.84
2023-04-21T10:44:30.019Z,48.04
2023-04-21T10:47:00.064Z,50.43
2023-04-21T10:49:28.989Z,50.84
2023-04-21T10:52:07.448Z,48.92
2023-04-21T10:54:43.514Z,49.06
2023-04-21T10:57:14.055Z,52.20
2023-04-21T10:59:41.943Z,53.04
2023-04-21T11:02:12.965Z,52.27
2023-04-21T11:04:45.287Z,50.95
2023-04-21T11:07:14.892Z,49.97
2023-04-21T11:09:44.526Z,51.63
2023-04-21T11:12:15.274Z,49.35
2023-04-21T11:14:46.323Z,51.84
2023-04-21T11:17:14.802Z,52.65
2023-04-21T11:19:42.939Z,49.51
2023-04-21T11:22:10.609Z,48.26
2023-04-21T11:24:38.375Z,47.71
2023-04-21T11:27:09.868Z,46.15
2023-04-21T11:29:39.268Z,46.09
2023-04-21T11:32:08.092Z,44.82
2023-04-21T11:34:38.130Z,44.29
2023-04-21T11:37:06.852Z,44.91
2023-04-21T11:39:34.665Z,44.46
2023-04-21T11:42:02.794Z,45.38
2023-04-21T11:44:35.008Z,44.78
2023-04-21T11:47:13.702Z,45.24
2023-04-21T11:49:46.321Z,44.93
2023-04-21T11:52:20.844Z,43.93
2023-04-21T11:54:48.888Z,44.46
2023-04-21T11:57:19.572Z,44.83
2023-04-21T11:59:48.265Z,44.38
2023-04-21T12:02:25.224Z,44.08
2023-04-21T12:05:03.932Z,44.42
2023-04-21T12:07:32.944Z,43.83
2023-04-21T12:10:01.656Z,44.16
2023-04-21T12:12:31.100Z,43.81
2023-04-21T12:14:59.257Z,44.66
2023-04-21T12:17:36.519Z,43.57
2023-04-21T12:20:07.317Z,43.46
2023-04-21T12:22:35.201Z,44.50
2023-04-21T12:25:02.964Z,43.90
2023-04-21T12:27:30.998Z,43.33
2023-04-21T12:29:58.720Z,45.54
2023-04-21T12:32:27.882Z,44.63
2023-04-21T12:34:56.189Z,44.88
2023-04-21T12:37:23.889Z,43.91
2023-04-21T12:39:51.578Z,44.93
2023-04-21T12:42:19.375Z,44.83
2023-04-21T12:44:47.051Z,44.12
2023-04-21T12:47:14.830Z,43.63
2023-04-21T12:49:44.066Z,42.49
2023-04-21T12:52:11.749Z,42.81
2023-04-21T12:54:39.547Z,41.87
2023-04-21T12:57:08.577Z,40.81
2023-04-21T12:59:36.269Z,40.35
2023-04-21T13:02:04.108Z,40.27
2023-04-21T13:04:32.525Z,40.00
2023-04-21T13:07:01.876Z,40.00
2023-04-21T13:09:29.900Z,39.07
2023-04-21T13:11:57.775Z,39.38
2023-04-21T13:14:25.608Z,39.36
2023-04-21T13:16:54.461Z,39.42
2023-04-21T13:19:22.208Z,39.59
2023-04-21T13:21:51.494Z,39.78
2023-04-21T13:24:22.696Z,38.94
2023-04-21T13:26:50.530Z,40.59
2023-04-21T13:29:18.304Z,39.03
2023-04-21T13:31:45.984Z,39.74
2023-04-21T13:34:13.670Z,38.38
2023-04-21T13:36:41.883Z,38.22
2023-04-21T13:39:10.469Z,37.62
2023-04-21T13:41:39.625Z,38.59
2023-04-21T13:44:07.582Z,38.68
2023-04-21T13:46:35.403Z,38.77
2023-04-21T13:49:03.450Z,39.05
2023-04-21T13:51:32.211Z,39.21
2023-04-21T13:54:00.073Z,39.00
2023-04-21T13:56:27.893Z,39.13
2023-04-21T13:58:57.095Z,39.00
2023-04-21T14:01:24.923Z,38.39
2023-04-21T14:03:54.047Z,37.92
2023-04-21T14:06:22.010Z,37.19
2023-04-21T14:08:49.733Z,37.29
2023-04-21T14:11:17.584Z,37.24
2023-04-21T14:14:00.868Z,37.47
2023-04-21T14:16:34.583Z,39.06
2023-04-21T14:19:02.396Z,38.07
2023-04-21T14:21:31.035Z,36.89
2023-04-21T14:23:58.990Z,36.35
2023-04-21T14:26:26.956Z,36.67
2023-04-21T14:28:54.603Z,36.62
2023-04-21T14:31:22.565Z,36.49
2023-04-21T14:33:51.739Z,36.76
2023-04-21T14:36:19.504Z,37.12
2023-04-21T14:38:47.527Z,35.97
2023-04-21T14:41:15.663Z,36.66
2023-04-21T14:43:43.490Z,36.82
2023-04-21T14:46:11.379Z,36.50
2023-04-21T14:48:39.562Z,37.06
2023-04-21T14:51:10.137Z,36.10
2023-04-21T14:53:37.886Z,36.45
2023-04-21T14:56:06.063Z,35.64
2023-04-21T14:58:33.973Z,35.71
2023-04-21T15:01:01.857Z,35.39
2023-04-21T15:03:29.938Z,35.22
2023-04-21T15:05:57.851Z,35.57
2023-04-21T15:08:27.700Z,35.70
2023-04-21T15:10:56.375Z,34.99
2023-04-21T15:13:24.441Z,35.21
2023-04-21T15:15:52.577Z,35.39
2023-04-21T15:18:20.912Z,36.07
2023-04-21T15:20:49.552Z,34.56
2023-04-21T15:23:17.580Z,34.94
2023-04-21T15:25:46.676Z,35.80
2023-04-21T15:28:14.422Z,35.38
2023-04-21T15:30:42.493Z,35.27
2023-04-21T15:33:11.598Z,35.00
2023-04-21T15:35:39.491Z,35.27
2023-04-21T15:38:07.336Z,35.70
2023-04-21T15:40:37.609Z,34.68
2023-04-21T15:43:13.102Z,34.21
2023-04-21T15:45:42.274Z,34.84
2023-04-21T15:48:10.086Z,35.03
2023-04-21T15:50:37.998Z,34.83
2023-04-21T15:53:06.217Z,34.88
2023-04-21T15:55:34.799Z,34.91
2023-04-21T15:58:02.615Z,34.99
2023-04-21T16:00:31.830Z,36.94
2023-04-21T16:02:59.735Z,38.30
2023-04-21T16:05:29.368Z,40.12
2023-04-21T16:07:57.199Z,41.92
2023-04-21T16:10:24.879Z,41.92
2023-04-21T16:12:52.719Z,43.06
2023-04-21T16:15:24.395Z,43.72
2023-04-21T16:17:54.295Z,43.44
2023-04-21T16:20:22.188Z,44.23
2023-04-21T16:22:50.348Z,47.14
2023-04-21T16:25:19.107Z,48.62
2023-04-21T16:27:46.945Z,50.60
2023-04-21T16:30:14.792Z,49.79
2023-04-21T16:32:42.541Z,50.11
2023-04-21T16:35:11.927Z,50.56
2023-04-21T16:37:40.547Z,50.17
2023-04-21T16:40:09.801Z,50.72
2023-04-21T16:42:37.847Z,51.29
2023-04-21T16:45:06.626Z,50.98
2023-04-21T16:47:40.426Z,49.81
2023-04-21T16:50:11.597Z,49.39
2023-04-21T16:52:39.364Z,48.76
2023-04-21T16:55:08.202Z,48.04
2023-04-21T16:57:36.168Z,47.41
2023-04-21T17:00:07.004Z,48.25
2023-04-21T17:02:35.189Z,48.44
2023-04-21T17:05:04.028Z,48.38
2023-04-21T17:07:33.149Z,49.18
2023-04-21T17:10:00.824Z,49.13
2023-04-21T17:12:28.676Z,48.92
2023-04-21T17:14:56.472Z,49.30
2023-04-21T17:17:24.356Z,49.16
2023-04-21T17:19:53.735Z,49.39
2023-04-21T17:22:21.471Z,49.80
2023-04-21T17:24:53.647Z,50.69
2023-04-21T17:27:22.083Z,51.41
2023-04-21T17:29:49.867Z,49.91
2023-04-21T17:32:17.713Z,49.41
2023-04-21T17:34:45.620Z,50.30
2023-04-21T17:37:13.359Z,49.38
2023-04-21T17:39:41.138Z,48.89
2023-04-21T17:42:10.233Z,49.21
2023-04-21T17:44:39.971Z,49.16
2023-04-21T17:47:08.929Z,50.45
2023-04-21T17:49:36.728Z,51.49
2023-04-21T17:52:04.693Z,50.79
2023-04-21T17:54:32.450Z,51.76
2023-04-21T17:57:01.579Z,52.25
2023-04-21T17:59:30.705Z,51.34
2023-04-21T18:01:59.137Z,54.35
2023-04-21T18:04:29.846Z,56.11
2023-04-21T18:06:58.914Z,55.30
2023-04-21T18:09:26.798Z,55.28
2023-04-21T18:11:54.555Z,57.58
2023-04-21T18:14:22.766Z,58.72
2023-04-21T18:16:51.879Z,59.92
2023-04-21T18:19:19.595Z,60.07
2023-04-21T18:21:47.310Z,61.23
2023-04-21T18:24:15.008Z,60.72
2023-04-21T18:26:42.845Z,59.20
2023-04-21T18:29:10.647Z,59.93
2023-04-21T18:31:39.324Z,58.60
2023-04-21T18:34:09.113Z,60.69
2023-04-21T18:36:38.463Z,60.61
2023-04-21T18:39:06.547Z,60.41
2023-04-21T18:41:34.242Z,59.89
2023-04-21T18:44:01.971Z,61.13
2023-04-21T18:46:29.780Z,62.16
2023-04-21T18:48:57.487Z,61.94
2023-04-21T18:51:31.021Z,58.29
2023-04-21T18:53:58.805Z,56.85
2023-04-21T18:56:26.581Z,55.87
2023-04-21T18:58:54.470Z,55.35
2023-04-21T19:01:22.260Z,54.96
2023-04-21T19:03:50.274Z,54.65
2023-04-21T19:06:18.239Z,54.39
2023-04-21T19:08:47.440Z,55.18
2023-04-21T19:11:15.851Z,56.61
2023-04-21T19:13:43.728Z,56.62
2023-04-21T19:16:11.659Z,57.45
2023-04-21T19:18:39.457Z,55.87
2023-04-21T19:21:10.291Z,53.85
2023-04-21T19:23:38.081Z,59.99
2023-04-21T19:26:08.664Z,66.37
2023-04-21T19:28:36.655Z,70.48
2023-04-21T19:31:04.553Z,73.30
2023-04-21T19:33:32.297Z,78.38
2023-04-21T19:36:00.097Z,80.93
2023-04-21T19:38:28.204Z,78.03
2023-04-21T19:40:56.981Z,73.90
2023-04-21T19:43:26.143Z,73.80
2023-04-21T19:45:53.959Z,77.13
2023-04-21T19:48:21.974Z,77.04
2023-04-21T19:50:49.797Z,78.75
2023-04-21T19:53:18.677Z,80.84
2023-04-21T19:55:46.848Z,77.42
2023-04-21T19:58:19.802Z,81.09
2023-04-21T20:00:57.548Z,86.47
2023-04-21T20:03:25.368Z,86.51
2023-04-21T20:05:53.165Z,86.38
2023-04-21T20:08:21.268Z,87.15
2023-04-21T20:10:48.959Z,87.08
2023-04-21T20:13:16.723Z,87.78
2023-04-21T20:15:44.521Z,88.63
2023-04-21T20:18:13.781Z,88.32
2023-04-21T20:20:41.582Z,89.19
2023-04-21T20:23:09.385Z,90.50
2023-04-21T20:25:37.211Z,89.91
2023-04-21T20:28:04.903Z,100.00
2023-04-21T20:30:32.692Z,98.08
2023-04-21T20:33:00.544Z,95.15
2023-04-21T20:35:30.561Z,91.10
2023-04-21T20:37:58.496Z,81.48
2023-04-21T20:40:26.284Z,78.39
2023-04-21T20:42:53.955Z,76.78
2023-04-21T20:45:22.488Z,74.03
2023-04-21T20:47:50.214Z,72.85
2023-04-21T20:50:18.418Z,73.56
2023-04-21T20:52:48.068Z,78.48
2023-04-21T20:55:15.958Z,81.41
2023-04-21T20:57:43.815Z,84.68
2023-04-21T21:00:12.306Z,80.76
2023-04-21T21:02:41.128Z,84.36
2023-04-21T21:05:09.516Z,89.34
2023-04-21T21:07:37.261Z,89.26
2023-04-21T21:10:08.134Z,83.90
2023-04-21T21:12:35.898Z,81.36
2023-04-21T21:15:04.189Z,80.62
2023-04-21T21:17:31.950Z,80.37
2023-04-21T21:19:59.797Z,80.66
2023-04-21T21:22:28.174Z,76.76
2023-04-21T21:24:55.839Z,85.12
2023-04-21T21:27:25.041Z,81.46
2023-04-21T21:29:52.697Z,88.28
2023-04-21T21:32:20.633Z,86.89
2023-04-21T21:34:49.622Z,84.38
2023-04-21T21:37:17.347Z,86.02
2023-04-21T21:39:45.095Z,85.58
2023-04-21T21:42:12.772Z,86.48
2023-04-21T21:44:41.782Z,85.18
2023-04-21T21:47:09.477Z,85.61
2023-04-21T21:49:38.414Z,84.09
2023-04-21T21:52:06.244Z,82.69
2023-04-21T21:54:34.001Z,82.11
2023-04-21T21:57:02.006Z,84.28
2023-04-21T21:59:29.796Z,86.57
2023-04-21T22:01:59.041Z,88.08
2023-04-21T22:04:26.916Z,89.15
2023-04-21T22:06:54.669Z,91.32
2023-04-21T22:09:22.423Z,92.14
2023-04-21T22:11:50.446Z,93.79
2023-04-21T22:14:23.259Z,94.40
2023-04-21T22:16:51.294Z,100.00
2023-04-21T22:19:20.455Z,100.00
2023-04-21T22:21:48.382Z,100.00
2023-04-21T22:24:16.244Z,100.00
2023-04-21T22:26:44.138Z,100.00
2023-04-21T22:29:11.924Z,100.00
2023-04-21T22:31:39.751Z,100.00
2023-04-21T22:34:07.467Z,100.00
2023-04-21T22:36:36.535Z,100.00
2023-04-21T22:39:04.901Z,100.00
2023-04-21T22:41:32.899Z,100.00
2023-04-21T22:44:00.578Z,100.00
2023-04-21T22:46:31.947Z,100.00
2023-04-21T22:48:59.996Z,100.00
2023-04-21T22:51:29.782Z,100.00
2023-04-21T22:53:59.328Z,100.00
2023-04-21T22:56:27.114Z,100.00
2023-04-21T22:58:54.787Z,100.00
2023-04-21T23:01:22.743Z,100.00
2023-04-21T23:03:50.714Z,100.00
2023-04-21T23:06:18.516Z,100.00
2023-04-21T23:08:46.172Z,100.00
2023-04-21T23:11:15.435Z,100.00
2023-04-21T23:13:43.114Z,100.00
2023-04-21T23:16:11.229Z,100.00
2023-04-21T23:18:39.034Z,100.00
2023-04-21T23:21:06.920Z,100.00
2023-04-21T23:23:34.686Z,100.00
2023-04-21T23:26:02.428Z,100.00
2023-04-21T23:28:31.653Z,100.00
2023-04-21T23:30:59.377Z,100.00
2023-04-21T23:33:27.062Z,100.00
2023-04-21T23:35:56.161Z,100.00
2023-04-21T23:38:23.958Z,100.00
2023-04-21T23:40:51.759Z,100.00
2023-04-21T23:43:19.601Z,100.00
2023-04-21T23:45:48.740Z,100.00
2023-04-21T23:48:16.501Z,100.00
2023-04-21T23:50:44.642Z,100.00
2023-04-21T23:53:12.370Z,100.00
2023-04-21T23:55:40.216Z,100.00
2023-04-21T23:58:08.021Z,100.00
